Time;durP1;ratioP1;P1;durP2;ratioP2;P2;SDS_P1;SDS_P2;PMS_P1;PMS_P2;Temp;Humidity;BMP_temperature;BMP_pressure;BME280_temperature;BME280_humidity;BME280_pressure;Samples;Min_cycle;Max_cycle;Signal;HPM_P1;HPM_P2
2021/12/20 00:01:56;;;;;;;9.95;8.52;;;8.40;71.70;;;;;;5047886;28;20029;-72
2021/12/20 00:04:23;;;;;;;10.48;8.27;;;8.30;71.50;;;;;;5038675;28;20044;-72
2021/12/20 00:06:48;;;;;;;9.57;7.65;;;8.30;71.50;;;;;;5070347;28;20025;-72
2021/12/20 00:09:15;;;;;;;10.93;9.48;;;8.40;71.70;;;;;;5072863;28;20047;-72
2021/12/20 00:11:41;;;;;;;10.40;8.32;;;8.30;71.50;;;;;;5081428;28;20040;-73
2021/12/20 00:14:07;;;;;;;9.45;8.27;;;8.40;71.70;;;;;;5080960;28;20028;-76
2021/12/20 00:16:34;;;;;;;9.82;8.25;;;8.30;71.50;;;;;;5085541;28;20055;-73
2021/12/20 00:19:00;;;;;;;10.10;8.90;;;8.40;71.70;;;;;;5081234;28;20035;-72
2021/12/20 00:21:26;;;;;;;9.80;7.68;;;8.30;71.50;;;;;;5065679;28;20060;-72
2021/12/20 00:23:53;;;;;;;10.95;8.93;;;8.30;71.50;;;;;;5071691;28;20090;-71
2021/12/20 00:26:19;;;;;;;10.27;7.95;;;8.30;71.50;;;;;;5068842;28;20029;-72
2021/12/20 00:28:45;;;;;;;10.25;8.35;;;8.30;71.50;;;;;;5067740;28;20100;-72
2021/12/20 00:31:11;;;;;;;9.18;8.10;;;8.30;71.50;;;;;;5068467;28;20028;-73
2021/12/20 00:33:40;;;;;;;9.13;8.00;;;8.30;71.60;;;;;;5067841;28;20033;-72
2021/12/20 00:36:07;;;;;;;10.23;8.27;;;8.30;71.60;;;;;;5068309;28;20040;-72
2021/12/20 00:41:19;;;;;;;10.63;8.75;;;8.30;71.60;;;;;;5067568;28;20052;-73
2021/12/20 00:43:48;;;;;;;9.57;8.20;;;8.30;71.60;;;;;;5064268;28;20025;-73
2021/12/20 00:46:14;;;;;;;10.15;8.63;;;8.30;71.60;;;;;;5047232;28;20124;-73
2021/12/20 00:48:41;;;;;;;11.20;8.50;;;8.30;71.60;;;;;;5047678;28;20056;-74
2021/12/20 00:51:07;;;;;;;10.38;8.75;;;8.30;71.60;;;;;;5046582;28;20044;-71
2021/12/20 00:53:33;;;;;;;10.60;8.32;;;8.30;71.60;;;;;;5047034;28;20035;-73
2021/12/20 00:55:59;;;;;;;10.18;8.05;;;8.20;71.50;;;;;;5047288;28;20426;-73
2021/12/20 00:58:25;;;;;;;9.90;8.40;;;8.20;71.50;;;;;;5046827;28;20033;-72
2021/12/20 01:00:52;;;;;;;10.50;8.98;;;8.20;71.50;;;;;;5045948;28;20033;-74
2021/12/20 01:03:20;;;;;;;9.73;8.45;;;8.20;71.50;;;;;;5046499;28;20024;-75
2021/12/20 01:05:46;;;;;;;9.68;8.57;;;8.20;71.50;;;;;;5046510;28;20033;-75
2021/12/20 01:08:13;;;;;;;10.18;8.77;;;8.20;71.50;;;;;;5046667;28;20033;-74
2021/12/20 01:10:48;;;;;;;10.25;8.25;;;8.20;71.50;;;;;;5046531;28;20091;-76
2021/12/20 01:13:17;;;;;;;9.90;8.90;;;8.20;71.50;;;;;;5029077;28;20399;-72
2021/12/20 01:15:49;;;;;;;9.57;8.55;;;8.30;71.70;;;;;;5047565;28;20047;-72
2021/12/20 01:18:16;;;;;;;11.70;9.02;;;8.20;71.50;;;;;;5049020;28;20064;-74
2021/12/20 01:20:43;;;;;;;10.63;9.15;;;8.30;71.70;;;;;;5066208;28;20298;-71
2021/12/20 01:23:11;;;;;;;11.15;9.18;;;8.20;71.50;;;;;;5048774;28;20032;-71
2021/12/20 01:25:38;;;;;;;10.82;8.77;;;8.20;71.60;;;;;;5048333;28;20502;-75
2021/12/20 01:28:06;;;;;;;10.38;9.23;;;8.20;71.60;;;;;;5066379;28;20063;-73
2021/12/20 01:30:32;;;;;;;11.93;9.52;;;8.20;71.60;;;;;;5066106;28;20046;-74
2021/12/20 01:32:58;;;;;;;11.10;8.68;;;8.20;71.60;;;;;;5064537;28;20082;-76
2021/12/20 01:35:27;;;;;;;11.32;9.00;;;8.20;71.60;;;;;;5047926;28;20475;-72
2021/12/20 01:37:57;;;;;;;10.10;7.68;;;8.20;71.60;;;;;;5067057;28;20463;-73
2021/12/20 01:40:23;;;;;;;11.55;10.15;;;8.20;71.60;;;;;;5065745;28;20104;-75
2021/12/20 01:42:54;;;;;;;9.50;8.52;;;8.20;71.60;;;;;;5065939;28;20063;-71
2021/12/20 01:45:23;;;;;;;11.82;9.05;;;8.10;71.50;;;;;;5047637;28;20127;-75
2021/12/20 01:48:02;;;;;;;10.18;9.07;;;8.10;71.50;;;;;;5048812;28;20024;-72
2021/12/20 01:50:48;;;;;;;11.35;8.88;;;8.20;71.70;;;;;;5066656;28;20131;-71
2021/12/20 01:53:20;;;;;;;12.27;9.82;;;8.20;71.70;;;;;;5066934;28;20024;-73
2021/12/20 01:55:47;;;;;;;11.93;9.55;;;8.10;71.60;;;;;;5048073;28;20021;-74
2021/12/20 01:58:14;;;;;;;10.85;8.90;;;8.10;71.50;;;;;;5065709;28;20122;-75
2021/12/20 02:01:23;;;;;;;10.07;8.70;;;8.10;71.60;;;;;;5031329;28;20040;-74
2021/12/20 02:03:32;;;;;;;11.30;9.80;;;8.10;71.60;;;;;;5032539;28;20044;-76
2021/12/20 02:05:59;;;;;;;10.43;9.15;;;8.20;71.70;;;;;;5028014;28;20112;-74
2021/12/20 02:08:28;;;;;;;11.55;9.00;;;8.20;71.70;;;;;;5045430;28;20025;-76
2021/12/20 02:10:57;;;;;;;11.05;8.90;;;8.10;71.60;;;;;;5045838;28;20032;-76
2021/12/20 02:13:28;;;;;;;11.43;8.90;;;8.10;71.60;;;;;;5045720;28;20091;-78
2021/12/20 02:15:59;;;;;;;11.90;9.20;;;8.20;71.80;;;;;;5027901;28;20218;-77
2021/12/20 02:18:27;;;;;;;11.10;9.68;;;8.10;71.60;;;;;;5031803;28;20071;-78
2021/12/20 02:20:53;;;;;;;11.52;8.95;;;8.10;71.60;;;;;;5064941;28;20032;-76
2021/12/20 02:23:20;;;;;;;10.35;8.32;;;8.20;71.80;;;;;;5065472;28;20024;-76
2021/12/20 02:25:46;;;;;;;10.55;9.32;;;8.10;71.60;;;;;;5047596;28;20112;-74
2021/12/20 02:28:19;;;;;;;11.43;9.93;;;8.20;71.80;;;;;;5063218;28;20035;-76
2021/12/20 02:36:56;;;;;;;10.65;9.25;;;8.10;71.60;;;;;;5041315;28;20049;-75
2021/12/20 02:39:20;;;;;;;12.60;10.13;;;8.10;71.60;;;;;;5028906;28;20029;-76
2021/12/20 02:41:46;;;;;;;11.27;8.93;;;8.10;71.60;;;;;;5046438;28;20056;-75
2021/12/20 02:44:20;;;;;;;12.27;10.05;;;8.10;71.70;;;;;;5041964;28;20040;-75
2021/12/20 02:47:03;;;;;;;11.85;10.50;;;8.10;71.70;;;;;;5065106;22;20064;-72
2021/12/20 02:49:29;;;;;;;11.05;9.07;;;8.10;71.70;;;;;;5056587;28;20029;-72
2021/12/20 02:52:05;;;;;;;11.55;9.95;;;8.10;71.70;;;;;;5083002;28;20052;-72
2021/12/20 02:54:32;;;;;;;11.07;9.07;;;8.10;71.70;;;;;;5090187;28;20468;-72
2021/12/20 02:56:58;;;;;;;11.98;9.93;;;8.10;71.70;;;;;;5090474;28;20032;-72
2021/12/20 02:59:24;;;;;;;12.60;10.25;;;8.10;71.70;;;;;;5090473;28;20107;-72
2021/12/20 03:01:57;;;;;;;12.02;10.05;;;8.10;71.70;;;;;;5090125;28;20395;-72
2021/12/20 03:04:23;;;;;;;;;;;8.10;71.80;;;;;;5090530;28;20391;-72
2021/12/20 03:06:56;;;;;;;11.18;9.35;;;8.10;71.70;;;;;;5090822;28;19908;-72
2021/12/20 03:09:32;;;;;;;12.13;9.68;;;8.10;71.60;;;;;;5090087;28;20032;-72
2021/12/20 03:11:59;;;;;;;11.60;9.10;;;8.10;71.60;;;;;;5090047;28;20373;-72
2021/12/20 03:14:35;;;;;;;12.00;10.25;;;8.20;71.80;;;;;;5090353;28;20497;-72
2021/12/20 03:17:01;;;;;;;9.95;8.43;;;8.20;71.90;;;;;;5090062;28;20043;-72
2021/12/20 03:19:28;;;;;;;11.60;9.35;;;8.10;71.70;;;;;;5072123;28;20119;-72
2021/12/20 03:21:54;;;;;;;10.30;8.38;;;8.10;71.70;;;;;;5069096;28;20029;-72
2021/12/20 03:24:20;;;;;;;12.00;8.93;;;8.20;71.90;;;;;;5068944;28;20025;-72
2021/12/20 03:26:47;;;;;;;11.95;9.95;;;8.10;71.70;;;;;;5072209;28;20062;-71
2021/12/20 03:29:13;;;;;;;9.68;8.50;;;8.10;71.70;;;;;;5055423;28;20072;-71
2021/12/20 03:31:39;;;;;;;10.18;8.77;;;8.20;71.90;;;;;;5073219;28;20071;-71
2021/12/20 03:34:06;;;;;;;9.13;7.88;;;8.10;71.80;;;;;;5073332;28;20102;-71
2021/12/20 03:36:32;;;;;;;9.20;8.20;;;8.20;72.00;;;;;;5072128;28;20338;-72
2021/12/20 03:38:59;;;;;;;10.55;8.70;;;8.20;72.00;;;;;;5073037;28;20102;-71
2021/12/20 03:41:24;;;;;;;9.50;8.20;;;8.10;71.80;;;;;;5073120;28;20032;-72
2021/12/20 03:43:50;;;;;;;8.82;7.72;;;8.20;72.00;;;;;;5073167;28;20028;-72
2021/12/20 03:46:17;;;;;;;9.07;8.18;;;8.20;72.00;;;;;;5073052;28;20127;-72
2021/12/20 03:48:43;;;;;;;10.63;8.48;;;8.10;71.80;;;;;;5073073;28;20029;-73
2021/12/20 03:51:09;;;;;;;9.52;7.55;;;8.10;71.80;;;;;;5072544;28;20507;-72
2021/12/20 03:53:36;;;;;;;10.43;8.68;;;8.10;71.80;;;;;;5072026;28;20077;-71
2021/12/20 03:56:05;;;;;;;8.48;7.05;;;8.10;71.80;;;;;;5072684;28;20025;-71
2021/12/20 03:58:32;;;;;;;8.48;7.25;;;8.10;71.80;;;;;;5073001;28;20135;-72
2021/12/20 04:01:00;;;;;;;7.75;6.85;;;8.20;72.00;;;;;;5072888;28;20448;-72
2021/12/20 04:03:29;;;;;;;8.88;7.43;;;8.20;72.00;;;;;;5072660;28;20027;-71
2021/12/20 04:05:56;;;;;;;8.57;7.13;;;8.20;72.00;;;;;;5072546;28;20033;-71
2021/12/20 04:08:22;;;;;;;8.40;7.32;;;8.20;72.00;;;;;;5072737;28;20024;-72
2021/12/20 04:10:48;;;;;;;8.10;6.93;;;8.20;72.00;;;;;;5081559;28;20416;-72
2021/12/20 04:13:14;;;;;;;8.32;6.53;;;8.20;72.00;;;;;;5092985;28;20028;-72
2021/12/20 04:15:40;;;;;;;7.38;6.38;;;8.20;72.00;;;;;;5092253;28;20113;-72
2021/12/20 04:18:05;;;;;;;8.15;6.18;;;8.20;72.00;;;;;;5092807;28;20051;-72
2021/12/20 04:20:32;;;;;;;7.47;6.10;;;8.20;72.00;;;;;;5092584;28;20051;-72
2021/12/20 04:22:58;;;;;;;7.30;6.07;;;8.20;72.00;;;;;;5092562;28;20383;-72
2021/12/20 04:25:24;;;;;;;7.25;6.10;;;8.20;72.00;;;;;;5092396;28;20034;-73
2021/12/20 04:27:49;;;;;;;7.63;5.85;;;8.20;72.00;;;;;;5092476;28;20028;-73
2021/12/20 04:30:15;;;;;;;7.55;6.03;;;8.20;72.00;;;;;;5092267;28;20028;-72
2021/12/20 04:32:46;;;;;;;6.20;5.60;;;8.20;72.00;;;;;;5092197;28;20032;-72
2021/12/20 04:35:14;;;;;;;6.90;5.43;;;8.20;72.00;;;;;;5092694;28;20670;-72
2021/12/20 04:37:43;;;;;;;6.90;6.20;;;8.20;72.00;;;;;;5091928;28;20024;-72
2021/12/20 04:40:14;;;;;;;9.45;6.95;;;8.20;72.00;;;;;;5092588;28;20036;-72
2021/12/20 04:42:40;;;;;;;6.28;5.57;;;8.20;72.00;;;;;;5092225;28;20487;-72
2021/12/20 04:45:06;;;;;;;5.40;4.90;;;8.20;72.00;;;;;;5073986;28;20028;-72
2021/12/20 04:47:32;;;;;;;6.85;6.00;;;8.20;72.00;;;;;;5091535;28;20052;-73
2021/12/20 04:49:59;;;;;;;7.28;5.97;;;8.20;72.00;;;;;;5091640;28;20023;-72
2021/12/20 04:52:25;;;;;;;6.20;5.07;;;8.20;72.00;;;;;;5091998;28;20104;-73
2021/12/20 04:54:51;;;;;;;5.78;5.18;;;8.20;72.00;;;;;;5073339;28;20031;-72
2021/12/20 04:57:18;;;;;;;8.40;5.32;;;8.20;72.00;;;;;;5092155;28;20024;-72
2021/12/20 04:59:44;;;;;;;6.85;5.97;;;8.20;72.00;;;;;;5091833;28;20028;-72
2021/12/20 05:02:10;;;;;;;6.18;5.57;;;8.20;72.00;;;;;;5091252;28;20032;-72
2021/12/20 05:04:36;;;;;;;7.25;6.10;;;8.20;72.10;;;;;;5092114;28;20042;-73
2021/12/20 05:07:03;;;;;;;6.15;5.55;;;8.20;72.00;;;;;;5091637;28;20058;-72
2021/12/20 05:09:36;;;;;;;6.05;5.18;;;8.20;72.00;;;;;;5091434;28;20039;-72
2021/12/20 05:12:11;;;;;;;6.55;5.90;;;8.30;72.20;;;;;;5091590;28;20051;-72
2021/12/20 05:14:42;;;;;;;6.60;5.68;;;8.30;72.20;;;;;;5091274;28;20487;-72
2021/12/20 05:17:11;;;;;;;6.75;6.05;;;8.30;72.20;;;;;;5091666;28;20028;-72
2021/12/20 05:19:38;;;;;;;6.32;5.63;;;8.20;72.00;;;;;;5091510;28;20107;-72
2021/12/20 05:22:05;;;;;;;6.57;5.25;;;8.30;72.20;;;;;;5091800;28;20028;-73
2021/12/20 05:24:31;;;;;;;6.07;5.47;;;8.30;72.10;;;;;;5090772;28;20060;-73
2021/12/20 05:26:57;;;;;;;6.78;5.55;;;8.20;71.90;;;;;;5091565;28;20067;-73
2021/12/20 05:29:24;;;;;;;6.93;5.57;;;8.20;72.00;;;;;;5073252;28;20032;-73
2021/12/20 05:31:50;;;;;;;7.40;6.32;;;8.20;72.00;;;;;;5073391;28;20116;-73
2021/12/20 05:34:16;;;;;;;6.00;5.10;;;8.20;72.00;;;;;;5091318;28;20035;-73
2021/12/20 05:36:42;;;;;;;6.68;5.22;;;8.30;72.20;;;;;;5091362;28;20034;-73
2021/12/20 05:39:08;;;;;;;6.13;5.53;;;8.20;72.00;;;;;;5091108;28;20118;-73
2021/12/20 05:41:34;;;;;;;6.45;5.40;;;8.30;72.20;;;;;;5072940;28;20032;-73
2021/12/20 05:44:00;;;;;;;7.20;5.90;;;8.30;72.20;;;;;;5091138;28;20039;-73
2021/12/20 05:46:26;;;;;;;5.88;5.28;;;8.30;72.20;;;;;;5091002;28;20105;-72
2021/12/20 05:48:52;;;;;;;5.95;5.25;;;8.30;72.20;;;;;;5071142;28;20028;-72
2021/12/20 05:51:18;;;;;;;5.57;4.45;;;8.20;72.00;;;;;;5053339;28;20036;-72
2021/12/20 05:53:45;;;;;;;7.07;5.20;;;8.30;72.20;;;;;;5063497;28;20412;-72
2021/12/20 05:56:11;;;;;;;7.72;5.07;;;8.30;72.20;;;;;;5067175;28;20067;-72
2021/12/20 05:58:37;;;;;;;6.57;5.28;;;8.30;72.30;;;;;;5056598;28;20082;-72
2021/12/20 06:01:03;;;;;;;6.65;5.68;;;8.30;72.20;;;;;;5047798;28;20267;-72
2021/12/20 06:03:29;;;;;;;5.20;4.63;;;8.30;72.20;;;;;;5043719;28;20377;-73
2021/12/20 06:05:55;;;;;;;6.25;4.80;;;8.30;72.10;;;;;;5070961;28;20433;-72
2021/12/20 06:08:21;;;;;;;5.18;4.68;;;8.30;72.10;;;;;;5057494;28;20032;-72
2021/12/20 06:10:47;;;;;;;6.13;5.10;;;8.30;72.10;;;;;;5045583;28;20041;-74
2021/12/20 06:13:13;;;;;;;5.50;4.90;;;8.40;72.30;;;;;;5045580;28;20754;-73
2021/12/20 06:15:39;;;;;;;6.30;4.72;;;8.40;72.30;;;;;;5043904;28;20080;-72
2021/12/20 06:18:04;;;;;;;6.38;5.28;;;8.40;72.30;;;;;;5037036;28;20114;-72
2021/12/20 06:20:30;;;;;;;5.47;4.78;;;8.40;72.30;;;;;;5065530;28;20535;-72
2021/12/20 06:22:56;;;;;;;5.65;5.15;;;8.40;72.20;;;;;;5063722;28;20033;-73
2021/12/20 06:25:23;;;;;;;6.72;4.72;;;8.40;72.20;;;;;;5045148;28;20069;-72
2021/12/20 06:27:49;;;;;;;5.53;4.90;;;8.40;72.20;;;;;;5045982;28;20033;-73
2021/12/20 06:30:15;;;;;;;5.82;5.28;;;8.40;72.10;;;;;;5045574;28;20511;-73
2021/12/20 06:32:43;;;;;;;5.88;4.63;;;8.50;72.30;;;;;;5027789;28;20033;-73
2021/12/20 06:35:10;;;;;;;7.72;5.93;;;8.50;72.30;;;;;;5045570;28;20566;-73
2021/12/20 06:37:36;;;;;;;5.03;4.53;;;8.50;72.30;;;;;;5047524;28;20215;-72
2021/12/20 06:40:06;;;;;;;5.25;4.72;;;8.50;72.20;;;;;;5065318;28;20082;-71
2021/12/20 06:42:32;;;;;;;5.55;5.00;;;8.50;72.20;;;;;;5065418;28;20089;-72
2021/12/20 06:44:58;;;;;;;7.05;5.25;;;8.50;72.20;;;;;;5065299;28;20036;-72
2021/12/20 06:47:24;;;;;;;5.90;4.88;;;8.50;72.20;;;;;;5065156;28;20090;-72
2021/12/20 06:49:50;;;;;;;6.03;4.88;;;8.50;72.20;;;;;;5065340;28;20479;-71
2021/12/20 06:52:16;;;;;;;6.95;4.72;;;8.50;72.20;;;;;;5046823;28;20042;-72
2021/12/20 06:54:42;;;;;;;6.60;5.05;;;8.50;72.40;;;;;;5064723;28;20472;-72
2021/12/20 06:57:08;;;;;;;6.28;4.72;;;8.60;72.70;;;;;;5065735;28;20032;-72
2021/12/20 06:59:34;;;;;;;6.75;4.10;;;8.60;72.70;;;;;;5065500;28;20387;-72
2021/12/20 07:02:00;;;;;;;5.22;3.75;;;8.60;72.70;;;;;;5069280;28;20035;-72
2021/12/20 07:04:26;;;;;;;4.57;3.83;;;8.60;72.60;;;;;;5068817;28;20128;-72
2021/12/20 07:06:53;;;;;;;5.93;4.97;;;8.60;72.60;;;;;;5068338;28;20395;-72
2021/12/20 07:09:19;;;;;;;4.30;3.72;;;8.60;72.70;;;;;;5068044;28;20035;-72
2021/12/20 07:11:45;;;;;;;5.57;4.10;;;8.60;72.70;;;;;;5069173;28;20052;-72
2021/12/20 07:14:11;;;;;;;5.15;3.65;;;8.60;72.60;;;;;;5067328;28;20102;-72
2021/12/20 07:16:40;;;;;;;4.03;3.47;;;8.60;72.60;;;;;;5051212;28;20028;-72
2021/12/20 07:19:06;;;;;;;3.63;3.33;;;8.60;72.60;;;;;;5071686;28;20426;-72
2021/12/20 07:21:32;;;;;;;4.30;3.75;;;8.60;72.60;;;;;;5082358;28;20402;-72
2021/12/20 07:23:58;;;;;;;5.57;3.35;;;8.60;72.60;;;;;;5057511;28;20472;-72
2021/12/20 07:26:24;;;;;;;4.18;3.78;;;8.70;72.80;;;;;;5049025;28;20028;-72
2021/12/20 07:28:50;;;;;;;3.17;2.78;;;8.70;73.20;;;;;;5069835;28;20032;-72
2021/12/20 07:31:16;;;;;;;4.07;3.10;;;8.80;73.60;;;;;;5053760;28;20366;-72
2021/12/20 07:33:44;;;;;;;4.22;3.08;;;8.80;73.70;;;;;;5059046;28;20380;-72
2021/12/20 07:36:11;;;;;;;3.55;3.20;;;8.90;73.80;;;;;;5047187;28;20033;-72
2021/12/20 07:38:37;;;;;;;4.35;3.20;;;8.90;73.70;;;;;;5046832;28;20136;-72
2021/12/20 07:41:04;;;;;;;4.50;3.47;;;8.90;73.70;;;;;;5030907;28;20070;-72
2021/12/20 07:43:30;;;;;;;3.78;3.40;;;8.90;73.70;;;;;;5049147;28;20029;-72
2021/12/20 07:45:56;;;;;;;4.00;3.05;;;8.90;73.60;;;;;;5048471;28;20086;-72
2021/12/20 07:48:22;;;;;;;3.25;2.95;;;8.90;73.60;;;;;;5059322;28;20175;-72
2021/12/20 07:50:49;;;;;;;3.83;3.35;;;8.90;73.60;;;;;;5046275;28;20129;-72
2021/12/20 07:53:16;;;;;;;4.43;3.28;;;8.90;73.60;;;;;;5046192;28;20032;-72
2021/12/20 07:55:42;;;;;;;3.85;3.17;;;8.90;73.60;;;;;;5045945;28;20040;-72
2021/12/20 07:58:08;;;;;;;4.53;3.17;;;8.80;73.50;;;;;;5046631;28;20032;-72
2021/12/20 08:00:35;;;;;;;4.00;3.58;;;8.80;73.40;;;;;;5048172;28;20025;-72
2021/12/20 08:03:01;;;;;;;4.25;3.30;;;8.80;73.40;;;;;;5046651;28;20116;-72
2021/12/20 08:05:28;;;;;;;4.10;3.00;;;8.80;73.30;;;;;;5047498;28;20076;-72
2021/12/20 08:07:54;;;;;;;3.50;3.20;;;8.80;73.30;;;;;;5047660;28;20484;-73
2021/12/20 08:10:25;;;;;;;3.45;2.75;;;8.80;73.30;;;;;;5048215;28;20119;-72
2021/12/20 08:12:52;;;;;;;4.32;3.67;;;8.80;73.30;;;;;;5047361;28;20235;-72
2021/12/20 08:15:21;;;;;;;4.78;3.92;;;8.80;73.30;;;;;;5047731;28;20531;-72
2021/12/20 08:17:48;;;;;;;10.80;4.97;;;8.80;73.20;;;;;;5047034;28;20048;-73
2021/12/20 08:20:14;;;;;;;3.85;3.45;;;8.80;73.20;;;;;;5047908;28;20029;-72
2021/12/20 08:22:40;;;;;;;3.85;3.45;;;8.80;73.10;;;;;;5048122;28;20040;-72
2021/12/20 08:25:07;;;;;;;5.57;3.97;;;8.80;73.10;;;;;;5047008;28;20021;-73
2021/12/20 08:27:33;;;;;;;4.38;3.97;;;8.90;73.20;;;;;;5048481;28;20036;-72
2021/12/20 08:30:00;;;;;;;4.63;3.58;;;8.80;73.00;;;;;;5048482;28;20270;-72
2021/12/20 08:32:26;;;;;;;5.57;3.40;;;8.90;73.10;;;;;;5067595;28;20270;-72
2021/12/20 08:34:53;;;;;;;3.90;3.50;;;8.80;72.90;;;;;;5049419;28;20438;-72
2021/12/20 08:37:19;;;;;;;3.90;3.60;;;8.90;73.00;;;;;;5047757;28;20041;-72
2021/12/20 08:39:45;;;;;;;3.88;3.47;;;8.90;73.00;;;;;;5047130;28;20028;-71
2021/12/20 08:42:11;;;;;;;3.50;2.95;;;8.90;73.00;;;;;;5047089;28;20073;-72
2021/12/20 08:44:37;;;;;;;3.72;3.08;;;8.90;72.90;;;;;;5045930;28;20110;-71
2021/12/20 08:47:03;;;;;;;3.47;2.88;;;8.90;72.90;;;;;;5027405;28;20440;-72
2021/12/20 08:49:29;;;;;;;4.03;3.10;;;8.80;72.70;;;;;;5044154;28;20031;-71
2021/12/20 08:51:56;;;;;;;4.03;3.42;;;8.90;72.80;;;;;;5065449;28;20464;-71
2021/12/20 08:54:24;;;;;;;4.35;3.92;;;8.90;72.70;;;;;;5052164;28;20027;-72
2021/12/20 08:56:51;;;;;;;3.97;3.17;;;8.90;72.70;;;;;;5044480;28;20500;-72
2021/12/20 08:59:17;;;;;;;3.28;2.97;;;8.90;72.70;;;;;;5045812;28;20378;-72
2021/12/20 09:01:44;;;;;;;3.35;2.80;;;8.90;72.60;;;;;;5046973;28;20036;-72
2021/12/20 09:04:10;;;;;;;4.68;3.70;;;8.90;72.60;;;;;;5046701;28;20482;-72
2021/12/20 09:06:41;;;;;;;3.03;2.50;;;8.90;72.60;;;;;;5046607;28;20052;-72
2021/12/20 09:09:13;;;;;;;3.30;2.75;;;8.90;72.50;;;;;;5053226;28;20028;-71
2021/12/20 09:11:40;;;;;;;3.50;2.60;;;9.00;72.60;;;;;;5066801;28;20040;-72
2021/12/20 09:14:06;;;;;;;3.75;2.50;;;8.90;72.30;;;;;;5055653;28;20051;-71
2021/12/20 09:16:32;;;;;;;3.38;2.47;;;9.00;72.50;;;;;;5045597;28;20131;-72
2021/12/20 09:18:58;;;;;;;3.13;2.20;;;9.00;72.40;;;;;;5045815;28;20037;-71
2021/12/20 09:21:24;;;;;;;2.95;2.22;;;9.00;72.40;;;;;;5046342;28;20033;-74
2021/12/20 09:23:51;;;;;;;2.80;2.05;;;9.00;72.30;;;;;;5044692;28;20590;-71
2021/12/20 09:26:18;;;;;;;2.75;2.55;;;9.00;72.30;;;;;;5044442;28;20094;-72
2021/12/20 09:28:44;;;;;;;2.90;2.10;;;9.00;72.20;;;;;;5044655;28;20059;-72
2021/12/20 09:31:10;;;;;;;2.78;2.08;;;9.00;72.20;;;;;;5027139;28;20037;-71
2021/12/20 09:33:36;;;;;;;3.67;2.42;;;9.00;72.10;;;;;;5045178;28;20443;-72
2021/12/20 09:36:04;;;;;;;2.60;2.40;;;9.00;72.10;;;;;;5026952;28;20128;-72
2021/12/20 09:38:31;;;;;;;2.22;1.80;;;9.00;72.00;;;;;;5046431;28;20031;-72
2021/12/20 09:43:29;;;;;;;2.55;2.10;;;9.00;72.00;;;;;;5046313;28;20041;-72
2021/12/20 09:45:56;;;;;;;2.88;2.35;;;9.10;72.10;;;;;;5046327;28;20021;-72
2021/12/20 09:48:23;;;;;;;3.58;2.25;;;9.10;72.10;;;;;;5032633;28;20036;-72
2021/12/20 09:50:49;;;;;;;3.50;2.03;;;9.00;71.90;;;;;;5046135;28;20068;-72
2021/12/20 09:53:16;;;;;;;2.35;2.15;;;9.10;72.10;;;;;;5046403;28;20045;-72
2021/12/20 09:55:47;;;;;;;2.90;1.92;;;9.10;72.50;;;;;;5046379;28;20029;-72
2021/12/20 09:58:13;;;;;;;2.63;2.28;;;9.10;72.00;;;;;;5051554;28;20480;-73
2021/12/20 10:00:40;;;;;;;2.75;1.85;;;9.10;72.00;;;;;;5066418;28;20035;-73
2021/12/20 10:03:06;;;;;;;2.90;2.20;;;9.10;72.00;;;;;;5063898;28;20662;-73
2021/12/20 10:05:35;;;;;;;2.30;2.00;;;9.10;71.90;;;;;;5046282;28;20052;-73
2021/12/20 10:08:12;;;;;;;2.95;2.20;;;9.10;71.90;;;;;;5033841;28;20025;-73
2021/12/20 10:10:47;;;;;;;2.28;2.08;;;9.20;72.00;;;;;;5065750;28;20082;-73
2021/12/20 10:13:25;;;;;;;2.63;2.20;;;9.10;71.80;;;;;;5062693;28;20033;-72
2021/12/20 10:15:52;;;;;;;3.35;2.10;;;9.20;71.90;;;;;;5045796;28;20343;-72
2021/12/20 10:18:18;;;;;;;2.38;2.17;;;9.20;71.90;;;;;;5052406;28;20037;-73
2021/12/20 10:20:50;;;;;;;3.25;1.95;;;9.20;71.80;;;;;;5056512;28;20068;-72
2021/12/20 10:23:23;;;;;;;2.92;2.63;;;9.20;71.80;;;;;;5045660;28;20025;-73
2021/12/20 10:25:52;;;;;;;;;;;9.20;71.70;;;;;;5045951;28;20033;-72
2021/12/20 10:28:23;;;;;;;2.45;2.17;;;9.30;71.90;;;;;;5061292;28;19916;-72
2021/12/20 10:30:59;;;;;;;2.88;2.53;;;9.30;71.80;;;;;;5065581;28;20029;-72
2021/12/20 10:33:26;;;;;;;2.67;2.42;;;9.20;71.60;;;;;;5047170;28;20042;-73
2021/12/20 10:35:58;;;;;;;2.55;2.17;;;9.30;71.70;;;;;;5050622;28;20020;-72
2021/12/20 10:38:33;;;;;;;3.17;2.42;;;9.30;71.70;;;;;;5051834;28;20032;-73
2021/12/20 10:41:15;;;;;;;2.72;2.38;;;9.30;71.60;;;;;;5051859;28;20111;-72
2021/12/20 10:43:57;;;;;;;2.50;2.30;;;9.30;71.60;;;;;;5069370;28;20032;-73
2021/12/20 10:46:32;;;;;;;3.90;2.55;;;9.40;71.70;;;;;;5069591;28;20060;-73
2021/12/20 10:49:03;;;;;;;2.63;2.42;;;9.40;71.70;;;;;;5068538;28;20353;-72
2021/12/20 10:51:32;;;;;;;2.22;2.03;;;9.40;71.70;;;;;;5069445;28;20520;-72
2021/12/20 10:54:02;;;;;;;3.20;2.67;;;9.40;71.60;;;;;;5051416;28;20511;-72
2021/12/20 10:56:30;;;;;;;3.22;2.80;;;9.40;71.60;;;;;;5069217;28;20135;-73
2021/12/20 10:58:58;;;;;;;2.22;1.98;;;9.40;71.50;;;;;;5068815;28;20077;-73
2021/12/20 11:04:26;;;;;;;3.10;2.30;;;9.50;71.70;;;;;;5069192;28;20032;-72
2021/12/20 11:09:41;;;;;;;3.97;2.58;;;9.50;71.50;;;;;;5068813;28;20025;-73
2021/12/20 11:12:10;;;;;;;2.63;2.03;;;9.50;71.50;;;;;;5051260;28;20323;-73
2021/12/20 11:14:45;;;;;;;3.33;1.95;;;9.50;71.40;;;;;;5054207;28;20044;-72
2021/12/20 11:17:15;;;;;;;2.22;1.98;;;9.50;71.30;;;;;;5049035;28;20095;-72
2021/12/20 11:19:46;;;;;;;2.55;1.90;;;9.60;71.50;;;;;;5048332;28;20036;-72
2021/12/20 11:22:38;;;;;;;2.22;1.90;;;9.60;71.40;;;;;;5049384;28;20090;-72
2021/12/20 11:25:08;;;;;;;2.03;1.70;;;9.60;71.30;;;;;;5027844;28;20037;-72
2021/12/20 11:27:37;;;;;;;3.25;1.85;;;9.60;71.20;;;;;;5048643;28;20604;-72
2021/12/20 11:30:14;;;;;;;3.47;1.85;;;9.60;71.20;;;;;;5048905;28;20476;-72
2021/12/20 11:32:41;;;;;;;2.20;2.00;;;9.70;71.30;;;;;;5048052;28;20118;-73
2021/12/20 11:35:08;;;;;;;2.05;1.83;;;9.70;71.30;;;;;;5048296;28;20067;-72
2021/12/20 11:37:34;;;;;;;1.35;1.25;;;9.70;71.30;;;;;;5048437;28;20052;-72
2021/12/20 11:40:02;;;;;;;2.20;1.85;;;9.70;71.30;;;;;;5048296;28;20130;-71
2021/12/20 11:42:29;;;;;;;2.08;1.50;;;9.70;71.30;;;;;;5048661;28;20033;-72
2021/12/20 11:44:58;;;;;;;2.58;1.80;;;9.70;71.30;;;;;;5048230;28;20029;-72
2021/12/20 11:47:31;;;;;;;2.00;1.52;;;9.70;71.20;;;;;;5047240;28;20072;-72
2021/12/20 11:50:13;;;;;;;1.70;1.60;;;9.70;71.20;;;;;;5048318;28;20032;-72
2021/12/20 11:52:45;;;;;;;1.50;1.38;;;9.70;71.10;;;;;;5048146;28;20072;-72
2021/12/20 11:55:20;;;;;;;1.97;1.83;;;9.70;71.10;;;;;;5061136;28;20021;-72
2021/12/20 11:58:03;;;;;;;1.48;1.38;;;9.70;71.10;;;;;;5047268;28;20036;-73
2021/12/20 12:00:33;;;;;;;2.58;1.55;;;9.80;71.20;;;;;;5047591;28;20032;-72
2021/12/20 12:03:19;;;;;;;1.58;1.00;;;9.70;71.00;;;;;;5029338;28;20086;-72
2021/12/20 12:05:58;;;;;;;1.65;1.25;;;9.70;71.30;;;;;;5048356;28;20031;-72
2021/12/20 12:08:26;;;;;;;1.10;1.02;;;9.80;71.70;;;;;;5040449;28;20040;-72
2021/12/20 12:10:59;;;;;;;1.70;1.60;;;10.00;72.00;;;;;;5062888;28;20359;-72
2021/12/20 12:13:28;;;;;;;1.40;1.05;;;10.00;71.80;;;;;;5033900;28;20044;-72
2021/12/20 12:16:05;;;;;;;1.30;1.20;;;10.00;71.80;;;;;;5068190;28;20029;-74
2021/12/20 12:18:52;;;;;;;1.83;1.13;;;10.10;71.90;;;;;;5068116;28;20051;-73
2021/12/20 12:21:34;;;;;;;1.42;1.10;;;10.10;71.90;;;;;;5068526;28;20548;-72
2021/12/20 12:24:05;;;;;;;0.95;0.95;;;10.10;71.80;;;;;;5067596;28;20073;-72
2021/12/20 12:26:37;;;;;;;1.40;1.30;;;10.10;71.70;;;;;;5067725;28;20032;-73
2021/12/20 12:29:05;;;;;;;1.30;1.00;;;10.10;71.80;;;;;;5049984;28;20511;-72
2021/12/20 12:32:07;;;;;;;2.78;1.30;;;10.10;71.80;;;;;;5067724;28;20028;-73
2021/12/20 12:34:41;;;;;;;1.73;1.45;;;10.10;71.80;;;;;;5005097;28;20569;-72
2021/12/20 12:37:29;;;;;;;1.50;1.40;;;10.00;71.60;;;;;;5057801;28;20036;-72
2021/12/20 12:40:28;;;;;;;1.48;1.25;;;10.00;71.60;;;;;;5066993;28;20091;-72
2021/12/20 12:42:57;;;;;;;1.75;1.40;;;10.00;71.60;;;;;;5049878;28;20032;-72
2021/12/20 12:45:49;;;;;;;2.00;1.55;;;10.00;71.60;;;;;;5067640;28;20032;-72
2021/12/20 12:48:33;;;;;;;3.30;1.80;;;10.00;71.60;;;;;;5067429;28;20040;-72
2021/12/20 12:51:18;;;;;;;2.33;2.05;;;9.90;71.40;;;;;;5060481;28;20036;-72
2021/12/20 12:53:45;;;;;;;1.65;1.55;;;9.90;71.40;;;;;;5033908;28;20036;-75
2021/12/20 12:56:23;;;;;;;2.10;1.92;;;9.90;71.40;;;;;;5067334;28;20039;-73
2021/12/20 12:59:16;;;;;;;2.40;1.95;;;9.90;71.50;;;;;;5055756;28;20028;-73
2021/12/20 13:01:58;;;;;;;2.30;2.10;;;9.90;71.50;;;;;;5043770;28;20056;-73
2021/12/20 13:04:44;;;;;;;2.50;2.10;;;9.90;71.50;;;;;;5047384;28;20029;-73
2021/12/20 13:07:11;;;;;;;2.95;2.10;;;9.90;71.50;;;;;;5029053;28;20033;-73
2021/12/20 13:09:44;;;;;;;2.40;2.13;;;9.90;71.50;;;;;;5046899;28;20025;-73
2021/12/20 13:12:33;;;;;;;3.28;2.80;;;9.90;71.50;;;;;;5046727;28;20091;-73
2021/12/20 13:15:17;;;;;;;2.58;2.38;;;9.80;71.30;;;;;;5046463;28;20043;-73
2021/12/20 13:17:46;;;;;;;3.83;2.58;;;9.80;71.30;;;;;;5046536;28;20059;-72
2021/12/20 13:23:08;;;;;;;3.55;3.10;;;9.80;71.30;;;;;;5047157;28;20033;-73
2021/12/20 13:25:51;;;;;;;4.57;4.18;;;9.80;71.20;;;;;;5046937;28;20032;-73